Goch-Asperden Airport

EDLG · Nordrhein-Westfalen, Deutschland

METAR-Geschichte EDLG · Goch-Asperden Airport

Unten siehst du die METARs der letzten paar Tage. Wähle ein Jahr, um ältere METARs ab dem Jahr 2007 zu durchsuchen.

28. November 2022

Uhrzeit Code Wetter Temp. Sichtweite Wolkendecke Wind METAR/SPECI
08:20
L
7 °C 3,8 km 300 ft 160° 160° 6 kt METAR EDLV 280720Z 16006KT 3800 -RA BR OVC003 07/07 Q1010
07:50
L
8 °C 4 km 400 ft 160° 160° 6 kt METAR EDLV 280650Z 16006KT 4000 -DZ BR OVC004 08/07 Q1009
07:20
L
8 °C 7 km 400 ft 150° 150° 7 kt METAR EDLV 280620Z 15007KT 7000 -RA BKN004 OVC008 08/07 Q1009
06:50
M
8 °C 5 km 1.100 ft 150° 150° 7 kt METAR EDLV 280550Z 15007KT 5000 -RA SCT006 OVC011 08/07 Q1009
06:20
M
8 °C 6 km 1.400 ft 160° 160° 7 kt METAR EDLV 280520Z 16007KT 6000 -RA FEW008 OVC014 08/07 Q1009
05:50
M
7 °C 5 km 1.600 ft 150° 150° 6 kt METAR EDLV 280450Z 15006KT 5000 -RA OVC016 07/07 Q1009
05:20
M
7 °C 7 km 1.800 ft 150° 150° 7 kt METAR EDLV 280420Z 15007KT 7000 -RA OVC018 07/07 Q1009
04:50
M
7 °C 8 km 2.100 ft 160° 160° 6 kt METAR EDLV 280350Z 16006KT 130V190 8000 -RA OVC021 07/07 Q1009

27. November 2022

Uhrzeit Code Wetter Temp. Sichtweite Wolkendecke Wind METAR/SPECI
23:50
M
8 °C 10 km+ 2.300 ft 140° 140° 10 kt METAR EDLV 272250Z 14010KT 9999 OVC023 08/05 Q1011
23:20
M
7 °C 10 km+ 2.400 ft 140° 140° 9 kt METAR EDLV 272220Z 14009KT 9999 OVC024 07/05 Q1011
22:20
M
7 °C 10 km+ 2.900 ft 140° 140° 9 kt METAR EDLV 272120Z 14009KT 9999 OVC029 07/05 Q1012
21:50
M
7 °C 8 km 2.800 ft 140° 140° 8 kt METAR EDLV 272050Z 14008KT 110V170 8000 -RA OVC028 07/05 Q1012
21:20
V
7 °C 10 km+ 3.000 ft 150° 150° 8 kt METAR EDLV 272020Z 15008KT 9999 -RA BKN030 OVC045 07/05 Q1013
20:50
V
7 °C 10 km+ 4.600 ft 150° 150° 9 kt METAR EDLV 271950Z 15009KT 9999 -RA OVC046 07/05 Q1013
20:20
V
7 °C 10 km+ 4.100 ft 140° 140° 10 kt METAR EDLV 271920Z 14010KT 110V170 9999 -RA BKN041 OVC049 07/05 Q1013
19:50
V
8 °C 10 km+ 3.700 ft 140° 140° 8 kt METAR EDLV 271850Z 14008KT 9999 -RA OVC037 08/05 Q1014
19:20
V
8 °C 10 km+ 3.600 ft 140° 140° 10 kt METAR EDLV 271820Z 14010KT 9999 -RA OVC036 08/05 Q1014
18:50
V
8 °C 10 km+ 4.000 ft 140° 140° 9 kt METAR EDLV 271750Z 14009KT 9999 -RA OVC040 08/04 Q1014
18:20
V
8 °C 10 km+ 3.900 ft 140° 140° 8 kt METAR EDLV 271720Z 14008KT 9999 OVC039 08/04 Q1015
17:50
V
8 °C 10 km+ 4.000 ft 150° 150° 8 kt METAR EDLV 271650Z 15008KT 9999 -RA OVC040 08/05 Q1015
17:20
V
8 °C 10 km+ 4.400 ft 140° 140° 7 kt METAR EDLV 271620Z 14007KT 9999 -RA BKN044 08/05 Q1016
16:50
V
8 °C 10 km+ 4.500 ft 150° 150° 8 kt METAR EDLV 271550Z 15008KT 9999 -RA BKN045 08/05 Q1016
16:20
V
8 °C 10 km+ 4.800 ft 140° 140° 9 kt METAR EDLV 271520Z 14009KT 9999 BKN048 08/05 Q1016
15:50
V
8 °C 10 km+ - 120° 120° 7 kt METAR EDLV 271450Z 12007KT 9999 -RA NSC 08/05 Q1016
15:20
V
8 °C 10 km+ 4.500 ft 120° 120° 7 kt METAR EDLV 271420Z 12007KT 9999 -RA BKN045 08/05 Q1017
14:50
V
8 °C 10 km+ 4.600 ft 150° 150° 6 kt METAR EDLV 271350Z 15006KT 120V180 9999 -RA BKN046 08/05 Q1018
14:20
V
8 °C 10 km+ 4.900 ft 140° 140° 8 kt METAR EDLV 271320Z 14008KT 9999 OVC049 08/05 Q1018
13:50
V
8 °C 10 km+ - 130° 130° 7 kt METAR EDLV 271250Z 13007KT CAVOK 08/05 Q1018
13:20
V
7 °C 10 km+ - 150° 150° 5 kt METAR EDLV 271220Z 15005KT CAVOK 07/05 Q1019
12:50
V
7 °C 10 km+ - 150° 150° 6 kt METAR EDLV 271150Z 15006KT 9999 -RA NSC 07/05 Q1019
12:20
V
7 °C 10 km+ - 150° 150° 7 kt METAR EDLV 271120Z 15007KT 9999 -RA NSC 07/05 Q1020
11:50
V
6 °C 10 km+ - 140° 140° 7 kt METAR EDLV 271050Z 14007KT 9999 -RA NSC 06/05 Q1020
11:20
V
6 °C 10 km+ - 140° 140° 9 kt METAR EDLV 271020Z 14009KT 9999 -RA NSC 06/04 Q1020
10:50
V
6 °C 10 km+ - 140° 140° 8 kt METAR EDLV 270950Z 14008KT 9999 -RA NSC 06/04 Q1021
10:20
V
6 °C 9 km - 140° 140° 7 kt METAR EDLV 270920Z 14007KT 9000 -RA NSC 06/04 Q1021
09:50
V
6 °C 10 km+ - 140° 140° 8 kt METAR EDLV 270850Z 14008KT 9999 -RA NSC 06/04 Q1021
09:20
V
6 °C 10 km+ - 140° 140° 8 kt METAR EDLV 270820Z 14008KT CAVOK 06/03 Q1021
08:50
V
6 °C 10 km+ - 140° 140° 7 kt METAR EDLV 270750Z 14007KT CAVOK 06/03 Q1022
08:20
V
6 °C 10 km+ - 150° 150° 7 kt METAR EDLV 270720Z 15007KT CAVOK 06/03 Q1022
07:50
V
6 °C 10 km+ - 150° 150° 7 kt METAR EDLV 270650Z 15007KT CAVOK 06/03 Q1022
07:20
V
6 °C 10 km+ - 150° 150° 9 kt METAR EDLV 270620Z 15009KT CAVOK 06/03 Q1022
06:50
V
5 °C 10 km+ - 150° 150° 8 kt METAR EDLV 270550Z 15008KT CAVOK 05/03 Q1022
06:20
V
6 °C 10 km+ - 160° 160° 9 kt METAR EDLV 270520Z 16009KT CAVOK 06/03 Q1023
05:50
V
6 °C 10 km+ - 150° 150° 10 kt METAR EDLV 270450Z 15010KT CAVOK 06/03 Q1023
05:20
V
5 °C 10 km+ - 150° 150° 10 kt METAR EDLV 270420Z 15010KT CAVOK 05/03 Q1023
04:50
V
5 °C 10 km+ 14.000 ft 140° 140° 11 kt METAR EDLV 270350Z AUTO 14011KT 9999 // FEW120/// BKN140/// OVC170/// 05/03 Q1023
04:20
V
5 °C 10 km+ 14.000 ft 150° 150° 10 kt METAR EDLV 270320Z AUTO 15010KT 9999 // BKN140/// 05/03 Q1023
03:50
V
5 °C 10 km+ 14.000 ft 140° 140° 10 kt METAR EDLV 270250Z AUTO 14010KT 9999 // OVC140/// 05/03 Q1024
03:20
V
5 °C 10 km+ 14.000 ft 140° 140° 10 kt METAR EDLV 270220Z AUTO 14010KT 9999 // BKN140/// 05/03 Q1024
02:50
V
5 °C 10 km+ - 140° 140° 9 kt METAR EDLV 270150Z AUTO 14009KT 9999 // SCT150/// 05/03 Q1025
02:20
V
5 °C 10 km+ 15.000 ft 140° 140° 9 kt METAR EDLV 270120Z AUTO 14009KT 9999 // OVC150/// 05/04 Q1025
01:50
V
5 °C 10 km+ 15.000 ft 150° 150° 7 kt METAR EDLV 270050Z AUTO 15007KT 9999 // BKN150/// 05/03 Q1025
01:20
V
5 °C 10 km+ - 150° 150° 7 kt METAR EDLV 270020Z AUTO 15007KT 9999 // FEW150/// 05/04 Q1025
00:50
V
5 °C 10 km+ 15.000 ft 140° 140° 9 kt METAR EDLV 262350Z AUTO 14009KT 9999 // BKN150/// 05/04 Q1025
00:20
V
5 °C 10 km+ - 140° 140° 7 kt METAR EDLV 262320Z AUTO 14007KT 9999 // NCD 05/03 Q1026

26. November 2022

Uhrzeit Code Wetter Temp. Sichtweite Wolkendecke Wind METAR/SPECI
23:50
V
5 °C 10 km+ - 140° 140° 7 kt METAR EDLV 262250Z 14007KT CAVOK 05/04 Q1026
23:20
V
6 °C 10 km+ - 150° 150° 7 kt METAR EDLV 262220Z 15007KT CAVOK 06/04 Q1026
22:50
V
7 °C 10 km+ - 150° 150° 7 kt METAR EDLV 262150Z 15007KT CAVOK 07/05 Q1027
22:20
V
7 °C 10 km+ - 160° 160° 6 kt METAR EDLV 262120Z 16006KT CAVOK 07/05 Q1028
21:50
V
7 °C 10 km+ - 170° 170° 7 kt METAR EDLV 262050Z 17007KT 150V210 CAVOK 07/05 Q1028
21:20
V
7 °C 10 km+ - 160° 160° 6 kt METAR EDLV 262020Z 16006KT CAVOK 07/05 Q1027
20:50
V
7 °C 10 km+ - 150° 150° 6 kt METAR EDLV 261950Z 15006KT CAVOK 07/06 Q1027
20:20
V
7 °C 10 km+ - 150° 150° 6 kt METAR EDLV 261920Z 15006KT CAVOK 07/06 Q1027
19:50
V
7 °C 10 km+ - 160° 160° 6 kt METAR EDLV 261850Z 16006KT CAVOK 07/06 Q1028
19:20
V
7 °C 10 km+ - 160° 160° 6 kt METAR EDLV 261820Z 16006KT CAVOK 07/06 Q1028
18:50
V
8 °C 10 km+ - 180° 180° 5 kt METAR EDLV 261750Z 18005KT CAVOK 08/06 Q1028
18:20
V
8 °C 10 km+ - 180° 180° 7 kt METAR EDLV 261720Z 18007KT CAVOK 08/06 Q1028
17:50
V
8 °C 10 km+ - 180° 180° 7 kt METAR EDLV 261650Z 18007KT CAVOK 08/07 Q1028
17:20
V
8 °C 10 km+ - 180° 180° 7 kt METAR EDLV 261620Z 18007KT 150V210 CAVOK 08/06 Q1028
16:50
V
9 °C 10 km+ - 170° 170° 7 kt METAR EDLV 261550Z 17007KT CAVOK 09/07 Q1028
16:20
V
10 °C 10 km+ - 180° 180° 6 kt METAR EDLV 261520Z 18006KT CAVOK 10/07 Q1028
15:50
V
10 °C 10 km+ - 170° 170° 6 kt METAR EDLV 261450Z 17006KT 150V210 CAVOK 10/07 Q1028
15:20
V
9 °C 10 km+ - 180° 180° 5 kt METAR EDLV 261420Z 18005KT CAVOK 09/07 Q1028
14:50
V
9 °C 10 km+ - 180° 180° 6 kt METAR EDLV 261350Z 18006KT CAVOK 09/07 Q1028
14:20
V
10 °C 10 km+ - 190° 190° 8 kt METAR EDLV 261320Z 19008KT CAVOK 10/07 Q1029
13:50
V
10 °C 10 km+ - 190° 190° 7 kt METAR EDLV 261250Z 19007KT CAVOK 10/08 Q1029
13:20
V
9 °C 10 km+ - 190° 190° 6 kt METAR EDLV 261220Z 19006KT CAVOK 09/08 Q1029
12:50
V
8 °C 9 km - 180° 180° 6 kt METAR EDLV 261150Z 18006KT 9000 NSC 08/07 Q1029
12:20
V
8 °C 9 km - 180° 180° 6 kt METAR EDLV 261120Z 18006KT 9000 NSC 08/07 Q1029
11:50
V
7 °C 8 km - 190° 190° 6 kt METAR EDLV 261050Z 19006KT 8000 FEW027 07/07 Q1029
11:20
M
7 °C 7 km - 190° 190° 5 kt METAR EDLV 261020Z 19005KT 7000 FEW003 07/06 Q1029
10:50
M
6 °C 5 km - 170° 170° 6 kt METAR EDLV 260950Z 17006KT 5000 BR SCT001 06/06 Q1029
10:20
L
5 °C 800 m 500 ft 170° 170° 6 kt METAR EDLV 260920Z 17006KT 140V200 0900 0800 R27/1300U FG SCT001 OVC005 05/05 Q1029
09:50
L
4 °C 1,1 km 200 ft Var 000° 0 kt METAR EDLV 260850Z /////KT ///V/// 1200 1100 R27/1600D BR BKN002 04/04 Q1029
09:20
I
4 °C 4,4 km - 180° 180° 5 kt METAR EDLV 260820Z 18005KT 4400 BR FEW002 04/04 Q1029
08:50
I
4 °C 3,7 km - 180° 180° 5 kt METAR EDLV 260750Z 18005KT 3700 BR FEW002 04/04 Q1028
08:20
M
4 °C 5 km - 190° 190° 5 kt METAR EDLV 260720Z 19005KT 5000 BR FEW004 04/04 Q1028
07:50
M
4 °C 5 km - 190° 190° 5 kt METAR EDLV 260650Z 19005KT 5000 BR FEW016 04/03 Q1028
07:20
I
4 °C 4,6 km - 180° 180° 5 kt METAR EDLV 260620Z 18005KT 160V230 4600 BR FEW002 04/03 Q1028
06:50
I
4 °C 4,4 km - 180° 180° 5 kt METAR EDLV 260550Z 18005KT 4400 BR FEW002 04/03 Q1028
06:20
M
4 °C 5 km - 180° 180° 4 kt METAR EDLV 260520Z 18004KT 5000 BR FEW001 04/04 Q1027
05:50
I
5 °C 4,8 km - 200° 200° 3 kt METAR EDLV 260450Z 20003KT 4800 BR FEW007 SCT028 05/04 Q1027
05:20
M
5 °C 5 km - 210° 210° 4 kt METAR EDLV 260420Z 21004KT 5000 BR FEW027 05/04 Q1027
04:50
M
5 °C 5 km - 220° 220° 5 kt METAR EDLV 260350Z 22005KT 5000 BR NSC 05/04 Q1027
04:20
M
5 °C 6 km - 220° 220° 5 kt METAR EDLV 260320Z AUTO 22005KT 6000 // NCD 05/04 Q1026
03:50
M
5 °C 5 km - 210° 210° 3 kt METAR EDLV 260250Z AUTO 21003KT 5000 // NCD 05/04 Q1026
03:20
M
5 °C 6 km - 190° 190° 3 kt METAR EDLV 260220Z AUTO 19003KT 6000 // NCD 05/04 Q1026
02:50
M
5 °C 7 km - 210° 210° 5 kt METAR EDLV 260150Z AUTO 21005KT 7000 // NCD 05/04 Q1026
02:20
M
5 °C 7 km - 210° 210° 5 kt METAR EDLV 260120Z AUTO 21005KT 7000 // NCD 05/05 Q1026
01:50
V
6 °C 8 km - 230° 230° 5 kt METAR EDLV 260050Z AUTO 23005KT 8000 // NCD 06/05 Q1026
01:20
M
6 °C 7 km - 230° 230° 5 kt METAR EDLV 260020Z AUTO 23005KT 7000 // NCD 06/05 Q1026
00:50
M
6 °C 6 km - 230° 230° 5 kt METAR EDLV 252350Z AUTO 23005KT 6000 // NCD 06/05 Q1025
00:20
M
6 °C 6 km - 230° 230° 5 kt METAR EDLV 252320Z AUTO 23005KT 6000 // NCD 06/05 Q1025

25. November 2022

Uhrzeit Code Wetter Temp. Sichtweite Wolkendecke Wind METAR/SPECI
23:50
V
6 °C 8 km - 230° 230° 6 kt METAR EDLV 252250Z 23006KT 8000 NSC 06/06 Q1025
23:20
V
7 °C 9 km - 230° 230° 6 kt METAR EDLV 252220Z 23006KT 9000 FEW028 07/06 Q1024
22:50
M
7 °C 9 km 2.600 ft 230° 230° 5 kt METAR EDLV 252150Z 23005KT 9000 BKN026 07/06 Q1024
22:20
V
7 °C 10 km+ - 230° 230° 4 kt METAR EDLV 252120Z 23004KT 9999 FEW026 07/06 Q1024
21:50
V
7 °C 10 km+ - 230° 230° 5 kt METAR EDLV 252050Z 23005KT CAVOK 07/06 Q1023
21:20
V
7 °C 10 km+ - 240° 240° 4 kt METAR EDLV 252020Z 24004KT CAVOK 07/06 Q1023
20:50
V
8 °C 10 km+ - 250° 250° 5 kt METAR EDLV 251950Z 25005KT CAVOK 08/07 Q1022
20:20
V
8 °C 10 km+ - 240° 240° 4 kt METAR EDLV 251920Z 24004KT CAVOK 08/07 Q1022
19:50
V
8 °C 10 km+ - 240° 240° 6 kt METAR EDLV 251850Z 24006KT 9999 FEW041 08/07 Q1021
19:20
V
9 °C 10 km+ - 250° 250° 5 kt METAR EDLV 251820Z 25005KT 9999 FEW019 09/07 Q1021
18:50
M
9 °C 10 km+ 2.000 ft 240° 240° 5 kt METAR EDLV 251750Z 24005KT 9999 BKN020 BKN049 09/07 Q1020
18:20
V
9 °C 10 km+ 3.300 ft 250° 250° 5 kt METAR EDLV 251720Z 25005KT 9999 FEW021 SCT025 BKN033 09/07 Q1020
17:50
V
9 °C 10 km+ - 230° 230° 5 kt METAR EDLV 251650Z 23005KT 9999 FEW028 09/07 Q1019
17:20
V
10 °C 10 km+ - 220° 220° 5 kt METAR EDLV 251620Z 22005KT 9999 FEW023 10/07 Q1019
16:50
V
11 °C 10 km+ - 240° 240° 6 kt METAR EDLV 251550Z 24006KT 9999 SCT025 11/07 Q1018
16:20
V
11 °C 10 km+ - 230° 230° 5 kt METAR EDLV 251520Z 23005KT 9999 FEW026 SCT039 11/07 Q1018
15:50
M
11 °C 10 km+ 2.600 ft 230° 230° 6 kt METAR EDLV 251450Z 23006KT 9999 BKN026 BKN038 11/07 Q1017
15:20
M
11 °C 10 km+ 2.600 ft 240° 240° 7 kt METAR EDLV 251420Z 24007KT 9999 BKN026 BKN031 11/07 Q1017
14:50
M
12 °C 10 km+ 2.500 ft 250° 250° 9 kt METAR EDLV 251350Z 25009KT 9999 BKN025 12/07 Q1017
14:20
M
12 °C 10 km+ 2.500 ft 240° 240° 8 kt METAR EDLV 251320Z 24008KT 9999 BKN025 12/07 Q1016
13:50
M
12 °C 10 km+ 2.400 ft 240° 240° 7 kt METAR EDLV 251250Z 24007KT 9999 FEW020 BKN024 12/08 Q1016
13:20
V
12 °C 10 km+ - 230° 230° 8 kt METAR EDLV 251220Z 23008KT 190V250 9999 FEW019 12/08 Q1016
12:50
V
11 °C 10 km+ - 230° 230° 9 kt METAR EDLV 251150Z 23009KT 9999 FEW020 11/08 Q1015
12:20
V
11 °C 10 km+ - 220° 220° 9 kt METAR EDLV 251120Z 22009KT CAVOK 11/08 Q1015
11:50
V
11 °C 10 km+ - 230° 230° 9 kt METAR EDLV 251050Z 23009KT CAVOK 11/08 Q1015
11:20
V
10 °C 10 km+ - 230° 230° 9 kt METAR EDLV 251020Z 23009KT 200V260 CAVOK 10/08 Q1014
10:50
V
10 °C 10 km+ - 220° 220° 10 kt METAR EDLV 250950Z 22010KT CAVOK 10/07 Q1014

Wir und Dritte verfolgen dein Internetverhalten auf unserer Website mit Cookies. Wenn du fortfährst, gehen wir davon aus, dass du mit unserer Cookie-Richtlinie einverstanden bist.